Skuhrov, Czech Republic

1:02 AM CEST on September 21, 2014 (GMT +0200)
HALOUNY METEO | Change Station
CLOSE
Current Station
Personal Weather Station
Location: Halouny, STREDOCESKY
Elevation: 1099 ft
Nearby Weather Stations

Elev 1099 ft 49.89 °N, 14.20 °E | Updated 6 hours ago

Thunderstorm
Thunderstorm
61 °F
Feels Like 61 °F
N
6
Wind Variable Wind from West
Gusts mph

Today
High -- | Low -- °F
--% Chance of Precip.
Yesterday
High -- | Low -- °F
Precip. -- in
6:47 AM 7:03 PM
Waning Crescent, 10% visible
Pressure 29.95 in
Visibility -9999.0 miles
Clouds
Dew Point 56 °F
Humidity 84%
Rainfall 0.15 in
Snow Depth Not available.
UV Not available.
Pollen Not available.
Air Quality Not available.
Flu Activity Not available.
METAR LKPR 202230Z 23009KT CAVOK 15/14 Q1014 NOSIG

More Conditions Fewer Conditions

Pressure 29.95 in
Visibility -9999.0 miles
Clouds
Dew Point 56 °F
Humidity 84%
Rainfall 0.15 in
Snow Depth Not available.
UV Not available.
Pollen Not available.
Air Quality Not available.
Flu Activity Not available.
METAR LKPR 202230Z 23009KT CAVOK 15/14 Q1014 NOSIG

More Conditions Fewer Conditions

10-Day Weather Forecast

Almanac

Astronomy

Sep. 21, 2014 Rise Set
Actual Time 6:47 AM CEST 7:03 PM CEST
Civil Twilight 6:15 AM CEST 7:36 PM CEST
Nautical Twilight 5:37 AM CEST 8:14 PM CEST
Astronomical Twilight 4:57 AM CEST 8:53 PM CEST
Moon 3:53 AM CEST (9/21) 5:40 PM CEST (9/21)
Length of Visible Light 13h 20m
Length of Day
12h 16m
Tomorrow will be 3m 41s shorter.
Waning Crescent, 10% of the Moon is Illuminated
Sep 20
Waning Crescent
Sep 24
New
Oct 1
First Quarter
Oct 8
Full
Oct 15
Last Quarter

Yesterday's Extremes

Country Highs Country Lows

Community

WunderPhotos

Upload Photos

1,754,972 photos uploaded!

WunderBlogs® & News

Nearby

Snow Depth

Not available.

Earthquake Activity

City Distance Mag. Time & Date
No recent earthquake activity has been reported nearby.
Minimum magnitude displayed is 2.5.

Coastal Water Temperatures

Place Temperature
No Stations Reporting

Nearby Weather Stations